sensor_id;sensor_type;location;lat;lon;timestamp;P1;durP1;ratioP1;P2;durP2;ratioP2
13368;SDS011;6753;52.520;13.450;2022-10-26T11:42:32;43.92;;;30.73;;
13368;SDS011;6753;52.520;13.450;2022-10-26T11:42:54;47.95;;;29.42;;
13368;SDS011;6753;52.520;13.450;2022-10-26T11:43:15;47.42;;;29.60;;
13368;SDS011;6753;52.520;13.450;2022-10-26T11:43:32;46.75;;;29.98;;
13368;SDS011;6753;52.520;13.450;2022-10-26T11:43:47;48.90;;;30.52;;
13368;SDS011;6753;52.520;13.450;2022-10-26T11:44:01;49.00;;;29.85;;
13368;SDS011;6753;52.520;13.450;2022-10-26T11:44:18;48.85;;;29.65;;
13368;SDS011;6753;52.520;13.450;2022-10-26T11:44:36;51.05;;;28.35;;
13368;SDS011;6753;52.520;13.450;2022-10-26T11:44:52;48.22;;;28.20;;
13368;SDS011;6753;52.520;13.450;2022-10-26T11:45:09;47.92;;;28.40;;
13368;SDS011;6753;52.520;13.450;2022-10-26T11:45:27;49.13;;;28.73;;
13368;SDS011;6753;52.520;13.450;2022-10-26T11:45:42;47.53;;;29.05;;
13368;SDS011;6753;52.520;13.450;2022-10-26T11:46:00;47.33;;;28.67;;
13368;SDS011;6753;52.520;13.450;2022-10-26T11:46:15;44.90;;;28.00;;
13368;SDS011;6753;52.520;13.450;2022-10-26T11:46:29;46.88;;;27.42;;
13368;SDS011;6753;52.520;13.450;2022-10-26T11:46:47;47.60;;;27.00;;
13368;SDS011;6753;52.520;13.450;2022-10-26T11:47:01;47.53;;;26.50;;
13368;SDS011;6753;52.520;13.450;2022-10-26T11:47:15;47.30;;;25.73;;
13368;SDS011;6753;52.520;13.450;2022-10-26T11:47:33;45.17;;;25.40;;
13368;SDS011;6753;52.520;13.450;2022-10-26T11:47:50;48.72;;;25.30;;
13368;SDS011;6753;52.520;13.450;2022-10-26T11:48:05;49.40;;;26.35;;
13368;SDS011;6753;52.520;13.450;2022-10-26T11:48:27;58.30;;;33.72;;
13368;SDS011;6753;52.520;13.450;2022-10-26T11:48:42;62.58;;;41.28;;
13368;SDS011;6753;52.520;13.450;2022-10-26T11:48:57;62.05;;;39.13;;
13368;SDS011;6753;52.520;13.450;2022-10-26T11:49:16;58.38;;;35.95;;
13368;SDS011;6753;52.520;13.450;2022-10-26T11:49:33;51.42;;;31.48;;
13368;SDS011;6753;52.520;13.450;2022-10-26T11:49:52;49.10;;;29.30;;
13368;SDS011;6753;52.520;13.450;2022-10-26T11:50:12;48.95;;;28.25;;
13368;SDS011;6753;52.520;13.450;2022-10-26T11:50:29;47.70;;;27.48;;
13368;SDS011;6753;52.520;13.450;2022-10-26T11:50:44;47.22;;;26.88;;
13368;SDS011;6753;52.520;13.450;2022-10-26T11:50:59;45.75;;;26.23;;
13368;SDS011;6753;52.520;13.450;2022-10-26T11:51:14;42.63;;;25.70;;
13368;SDS011;6753;52.520;13.450;2022-10-26T11:51:35;41.35;;;24.95;;
13368;SDS011;6753;52.520;13.450;2022-10-26T11:51:51;42.20;;;24.13;;
13368;SDS011;6753;52.520;13.450;2022-10-26T11:52:07;39.78;;;23.90;;
13368;SDS011;6753;52.520;13.450;2022-10-26T11:52:27;40.55;;;23.95;;
13368;SDS011;6753;52.520;13.450;2022-10-26T11:52:44;37.08;;;24.15;;
13368;SDS011;6753;52.520;13.450;2022-10-26T11:52:59;40.20;;;25.40;;
13368;SDS011;6753;52.520;13.450;2022-10-26T11:53:16;42.63;;;26.75;;
13368;SDS011;6753;52.520;13.450;2022-10-26T11:53:30;44.22;;;27.35;;
13368;SDS011;6753;52.520;13.450;2022-10-26T11:53:47;44.10;;;27.15;;
13368;SDS011;6753;52.520;13.450;2022-10-26T11:54:00;41.40;;;26.55;;
13368;SDS011;6753;52.520;13.450;2022-10-26T11:54:15;38.85;;;25.65;;
13368;SDS011;6753;52.520;13.450;2022-10-26T11:54:34;36.70;;;23.70;;
13368;SDS011;6753;52.520;13.450;2022-10-26T11:54:52;35.45;;;22.63;;
13368;SDS011;6753;52.520;13.450;2022-10-26T11:55:04;39.70;;;23.13;;
13368;SDS011;6753;52.520;13.450;2022-10-26T11:55:17;131.95;;;107.57;;
13368;SDS011;6753;52.520;13.450;2022-10-26T11:55:32;383.65;;;335.65;;
13368;SDS011;6753;52.520;13.450;2022-10-26T11:55:45;137.85;;;110.82;;
13368;SDS011;6753;52.520;13.450;2022-10-26T11:55:59;103.97;;;75.57;;
13368;SDS011;6753;52.520;13.450;2022-10-26T11:56:14;219.40;;;180.60;;
13368;SDS011;6753;52.520;13.450;2022-10-26T11:56:37;118.03;;;86.68;;
13368;SDS011;6753;52.520;13.450;2022-10-26T11:56:53;159.90;;;133.65;;
13368;SDS011;6753;52.520;13.450;2022-10-26T11:57:06;269.80;;;226.88;;
13368;SDS011;6753;52.520;13.450;2022-10-26T11:57:19;415.45;;;365.17;;
13368;SDS011;6753;52.520;13.450;2022-10-26T11:57:33;488.75;;;434.77;;
13368;SDS011;6753;52.520;13.450;2022-10-26T11:57:46;474.73;;;421.30;;
13368;SDS011;6753;52.520;13.450;2022-10-26T11:57:58;298.08;;;251.25;;
13368;SDS011;6753;52.520;13.450;2022-10-26T11:58:11;249.05;;;200.23;;
13368;SDS011;6753;52.520;13.450;2022-10-26T11:58:23;300.50;;;248.02;;
13368;SDS011;6753;52.520;13.450;2022-10-26T11:58:36;301.90;;;249.73;;
13368;SDS011;6753;52.520;13.450;2022-10-26T11:58:47;302.50;;;252.43;;
13368;SDS011;6753;52.520;13.450;2022-10-26T11:58:59;304.80;;;254.52;;
13368;SDS011;6753;52.520;13.450;2022-10-26T11:59:13;257.05;;;221.57;;
13368;SDS011;6753;52.520;13.450;2022-10-26T11:59:29;269.92;;;222.65;;
13368;SDS011;6753;52.520;13.450;2022-10-26T11:59:43;280.98;;;231.45;;
13368;SDS011;6753;52.520;13.450;2022-10-26T11:59:59;241.40;;;195.05;;
13368;SDS011;6753;52.520;13.450;2022-10-26T12:00:14;255.30;;;201.93;;
13368;SDS011;6753;52.520;13.450;2022-10-26T12:00:26;261.42;;;210.35;;
13368;SDS011;6753;52.520;13.450;2022-10-26T12:00:40;269.45;;;217.25;;
13368;SDS011;6753;52.520;13.450;2022-10-26T12:00:57;171.38;;;136.82;;
13368;SDS011;6753;52.520;13.450;2022-10-26T12:01:12;247.75;;;201.93;;
13368;SDS011;6753;52.520;13.450;2022-10-26T12:01:25;300.85;;;246.85;;
13368;SDS011;6753;52.520;13.450;2022-10-26T12:01:38;442.40;;;390.58;;
13368;SDS011;6753;52.520;13.450;2022-10-26T12:01:49;658.97;;;593.38;;
13368;SDS011;6753;52.520;13.450;2022-10-26T12:02:05;498.40;;;443.55;;
13368;SDS011;6753;52.520;13.450;2022-10-26T12:02:23;565.63;;;505.40;;
13368;SDS011;6753;52.520;13.450;2022-10-26T12:02:37;561.00;;;501.83;;
13368;SDS011;6753;52.520;13.450;2022-10-26T12:02:51;529.97;;;473.45;;
13368;SDS011;6753;52.520;13.450;2022-10-26T12:03:06;496.88;;;442.70;;
13368;SDS011;6753;52.520;13.450;2022-10-26T12:03:22;471.27;;;419.25;;
13368;SDS011;6753;52.520;13.450;2022-10-26T12:03:38;219.65;;;182.90;;
13368;SDS011;6753;52.520;13.450;2022-10-26T12:03:54;291.02;;;248.65;;
13368;SDS011;6753;52.520;13.450;2022-10-26T12:04:07;365.00;;;308.90;;
13368;SDS011;6753;52.520;13.450;2022-10-26T12:04:20;329.13;;;279.10;;
13368;SDS011;6753;52.520;13.450;2022-10-26T12:04:34;296.67;;;248.57;;
13368;SDS011;6753;52.520;13.450;2022-10-26T12:04:48;245.05;;;198.00;;
13368;SDS011;6753;52.520;13.450;2022-10-26T12:05:05;263.60;;;215.75;;
13368;SDS011;6753;52.520;13.450;2022-10-26T12:05:31;265.05;;;212.90;;
13368;SDS011;6753;52.520;13.450;2022-10-26T12:05:45;331.40;;;292.25;;
13368;SDS011;6753;52.520;13.450;2022-10-26T12:05:59;322.70;;;274.88;;
13368;SDS011;6753;52.520;13.450;2022-10-26T12:06:10;290.55;;;245.18;;
13368;SDS011;6753;52.520;13.450;2022-10-26T12:06:24;281.00;;;236.77;;
13368;SDS011;6753;52.520;13.450;2022-10-26T12:06:41;277.85;;;235.00;;
13368;SDS011;6753;52.520;13.450;2022-10-26T12:06:53;274.08;;;228.77;;
13368;SDS011;6753;52.520;13.450;2022-10-26T12:07:09;270.00;;;224.05;;
13368;SDS011;6753;52.520;13.450;2022-10-26T12:07:25;267.13;;;222.43;;
13368;SDS011;6753;52.520;13.450;2022-10-26T12:07:42;265.00;;;219.55;;
13368;SDS011;6753;52.520;13.450;2022-10-26T12:07:58;246.85;;;205.93;;
13368;SDS011;6753;52.520;13.450;2022-10-26T12:08:11;427.65;;;358.85;;
13368;SDS011;6753;52.520;13.450;2022-10-26T12:08:24;1108.05;;;898.45;;
13368;SDS011;6753;52.520;13.450;2022-10-26T12:08:38;817.70;;;731.38;;
13368;SDS011;6753;52.520;13.450;2022-10-26T12:08:53;560.60;;;501.33;;
13368;SDS011;6753;52.520;13.450;2022-10-26T12:09:11;385.45;;;336.92;;
13368;SDS011;6753;52.520;13.450;2022-10-26T12:09:26;347.58;;;294.38;;
13368;SDS011;6753;52.520;13.450;2022-10-26T12:09:41;305.17;;;251.45;;
13368;SDS011;6753;52.520;13.450;2022-10-26T12:09:53;289.60;;;241.77;;
13368;SDS011;6753;52.520;13.450;2022-10-26T12:10:07;312.95;;;260.88;;
13368;SDS011;6753;52.520;13.450;2022-10-26T12:10:26;334.75;;;269.23;;
13368;SDS011;6753;52.520;13.450;2022-10-26T12:10:40;312.13;;;253.85;;
13368;SDS011;6753;52.520;13.450;2022-10-26T12:10:55;311.52;;;265.05;;
13368;SDS011;6753;52.520;13.450;2022-10-26T12:11:17;235.52;;;195.20;;
13368;SDS011;6753;52.520;13.450;2022-10-26T12:11:43;200.70;;;167.10;;
13368;SDS011;6753;52.520;13.450;2022-10-26T12:12:00;176.18;;;145.23;;
13368;SDS011;6753;52.520;13.450;2022-10-26T12:12:18;171.73;;;141.40;;
13368;SDS011;6753;52.520;13.450;2022-10-26T12:12:39;316.67;;;257.52;;
13368;SDS011;6753;52.520;13.450;2022-10-26T12:12:54;219.20;;;171.75;;
13368;SDS011;6753;52.520;13.450;2022-10-26T12:13:14;204.75;;;159.50;;
13368;SDS011;6753;52.520;13.450;2022-10-26T12:13:29;330.42;;;264.10;;
13368;SDS011;6753;52.520;13.450;2022-10-26T12:13:44;271.98;;;214.00;;
13368;SDS011;6753;52.520;13.450;2022-10-26T12:14:00;248.77;;;196.68;;
13368;SDS011;6753;52.520;13.450;2022-10-26T12:14:17;252.88;;;201.02;;
13368;SDS011;6753;52.520;13.450;2022-10-26T12:14:35;240.07;;;193.02;;
13368;SDS011;6753;52.520;13.450;2022-10-26T12:14:52;250.52;;;201.98;;
13368;SDS011;6753;52.520;13.450;2022-10-26T12:15:13;242.73;;;195.07;;
13368;SDS011;6753;52.520;13.450;2022-10-26T12:15:28;230.13;;;181.25;;
13368;SDS011;6753;52.520;13.450;2022-10-26T12:15:45;221.30;;;174.80;;
13368;SDS011;6753;52.520;13.450;2022-10-26T12:16:02;219.73;;;171.50;;
13368;SDS011;6753;52.520;13.450;2022-10-26T12:16:15;220.32;;;174.75;;
13368;SDS011;6753;52.520;13.450;2022-10-26T12:16:40;231.60;;;182.35;;
13368;SDS011;6753;52.520;13.450;2022-10-26T12:16:58;248.77;;;198.30;;
13368;SDS011;6753;52.520;13.450;2022-10-26T12:17:11;258.10;;;206.13;;
13368;SDS011;6753;52.520;13.450;2022-10-26T12:17:30;266.95;;;215.00;;
13368;SDS011;6753;52.520;13.450;2022-10-26T12:17:48;270.08;;;216.73;;
13368;SDS011;6753;52.520;13.450;2022-10-26T12:18:08;272.55;;;219.95;;
13368;SDS011;6753;52.520;13.450;2022-10-26T12:18:24;283.25;;;227.43;;
13368;SDS011;6753;52.520;13.450;2022-10-26T12:18:43;288.50;;;231.25;;
13368;SDS011;6753;52.520;13.450;2022-10-26T12:19:00;290.63;;;233.85;;
13368;SDS011;6753;52.520;13.450;2022-10-26T12:19:17;285.35;;;228.65;;
13368;SDS011;6753;52.520;13.450;2022-10-26T12:19:33;285.27;;;227.25;;
13368;SDS011;6753;52.520;13.450;2022-10-26T12:19:49;293.08;;;233.77;;
13368;SDS011;6753;52.520;13.450;2022-10-26T12:20:09;306.13;;;237.88;;
13368;SDS011;6753;52.520;13.450;2022-10-26T12:20:51;518.40;;;450.13;;
13368;SDS011;6753;52.520;13.450;2022-10-26T12:21:07;452.65;;;385.80;;
13368;SDS011;6753;52.520;13.450;2022-10-26T12:21:18;420.00;;;356.40;;
13368;SDS011;6753;52.520;13.450;2022-10-26T12:21:30;395.15;;;332.63;;
13368;SDS011;6753;52.520;13.450;2022-10-26T12:21:43;378.05;;;315.63;;
13368;SDS011;6753;52.520;13.450;2022-10-26T12:21:55;339.52;;;272.65;;
13368;SDS011;6753;52.520;13.450;2022-10-26T12:22:07;315.98;;;253.85;;
13368;SDS011;6753;52.520;13.450;2022-10-26T12:22:22;298.60;;;231.90;;
13368;SDS011;6753;52.520;13.450;2022-10-26T12:22:39;288.83;;;213.35;;
13368;SDS011;6753;52.520;13.450;2022-10-26T12:22:52;279.58;;;207.00;;
13368;SDS011;6753;52.520;13.450;2022-10-26T12:23:03;276.67;;;202.30;;
13368;SDS011;6753;52.520;13.450;2022-10-26T12:23:15;282.58;;;206.13;;
13368;SDS011;6753;52.520;13.450;2022-10-26T12:23:27;285.23;;;210.95;;
13368;SDS011;6753;52.520;13.450;2022-10-26T12:23:52;290.10;;;219.13;;
13368;SDS011;6753;52.520;13.450;2022-10-26T12:24:41;444.85;;;365.63;;
13368;SDS011;6753;52.520;13.450;2022-10-26T12:25:03;408.02;;;316.50;;
13368;SDS011;6753;52.520;13.450;2022-10-26T12:25:19;490.83;;;436.52;;
13368;SDS011;6753;52.520;13.450;2022-10-26T12:25:31;469.77;;;400.85;;
13368;SDS011;6753;52.520;13.450;2022-10-26T12:25:41;464.92;;;412.75;;
13368;SDS011;6753;52.520;13.450;2022-10-26T12:25:56;467.58;;;402.45;;
13368;SDS011;6753;52.520;13.450;2022-10-26T12:26:59;438.57;;;362.13;;
13368;SDS011;6753;52.520;13.450;2022-10-26T12:27:51;383.75;;;298.25;;
13368;SDS011;6753;52.520;13.450;2022-10-26T12:28:04;374.33;;;294.88;;
13368;SDS011;6753;52.520;13.450;2022-10-26T12:28:39;358.05;;;292.10;;
13368;SDS011;6753;52.520;13.450;2022-10-26T12:29:38;311.73;;;252.18;;
13368;SDS011;6753;52.520;13.450;2022-10-26T12:30:21;312.70;;;245.20;;
13368;SDS011;6753;52.520;13.450;2022-10-26T12:30:34;286.45;;;224.60;;
13368;SDS011;6753;52.520;13.450;2022-10-26T12:30:46;277.25;;;220.35;;
13368;SDS011;6753;52.520;13.450;2022-10-26T12:31:02;268.85;;;214.30;;
13368;SDS011;6753;52.520;13.450;2022-10-26T12:31:54;249.07;;;200.82;;
13368;SDS011;6753;52.520;13.450;2022-10-26T12:32:59;237.63;;;187.52;;
13368;SDS011;6753;52.520;13.450;2022-10-26T12:33:26;228.35;;;179.57;;
13368;SDS011;6753;52.520;13.450;2022-10-26T12:33:47;210.88;;;161.95;;
13368;SDS011;6753;52.520;13.450;2022-10-26T12:33:59;211.30;;;163.93;;
13368;SDS011;6753;52.520;13.450;2022-10-26T12:34:10;212.68;;;164.05;;
13368;SDS011;6753;52.520;13.450;2022-10-26T12:34:23;215.88;;;164.60;;
13368;SDS011;6753;52.520;13.450;2022-10-26T12:35:00;206.23;;;159.27;;
13368;SDS011;6753;52.520;13.450;2022-10-26T12:35:53;195.95;;;154.18;;
13368;SDS011;6753;52.520;13.450;2022-10-26T12:36:23;196.07;;;152.10;;
13368;SDS011;6753;52.520;13.450;2022-10-26T12:37:28;181.73;;;143.63;;
13368;SDS011;6753;52.520;13.450;2022-10-26T12:37:41;181.18;;;141.25;;
13368;SDS011;6753;52.520;13.450;2022-10-26T12:37:52;176.77;;;140.65;;
13368;SDS011;6753;52.520;13.450;2022-10-26T12:39:00;169.75;;;134.98;;
13368;SDS011;6753;52.520;13.450;2022-10-26T12:39:25;167.18;;;133.75;;
13368;SDS011;6753;52.520;13.450;2022-10-26T12:39:38;173.80;;;131.85;;
13368;SDS011;6753;52.520;13.450;2022-10-26T12:39:49;176.93;;;132.63;;
13368;SDS011;6753;52.520;13.450;2022-10-26T12:41:06;165.00;;;129.00;;
13368;SDS011;6753;52.520;13.450;2022-10-26T12:41:25;164.40;;;126.28;;
13368;SDS011;6753;52.520;13.450;2022-10-26T12:41:37;164.02;;;125.20;;
13368;SDS011;6753;52.520;13.450;2022-10-26T12:41:53;163.20;;;123.50;;
13368;SDS011;6753;52.520;13.450;2022-10-26T12:42:10;155.77;;;121.07;;
13368;SDS011;6753;52.520;13.450;2022-10-26T12:42:39;153.43;;;118.95;;
13368;SDS011;6753;52.520;13.450;2022-10-26T12:42:51;153.55;;;119.07;;
13368;SDS011;6753;52.520;13.450;2022-10-26T12:43:44;151.40;;;116.05;;
13368;SDS011;6753;52.520;13.450;2022-10-26T12:43:57;151.32;;;115.50;;
13368;SDS011;6753;52.520;13.450;2022-10-26T12:45:16;289.90;;;206.27;;
13368;SDS011;6753;52.520;13.450;2022-10-26T12:45:30;198.60;;;148.32;;
13368;SDS011;6753;52.520;13.450;2022-10-26T12:45:42;184.70;;;138.02;;
13368;SDS011;6753;52.520;13.450;2022-10-26T12:46:51;158.52;;;122.25;;
13368;SDS011;6753;52.520;13.450;2022-10-26T12:47:03;157.88;;;122.47;;
13368;SDS011;6753;52.520;13.450;2022-10-26T12:48:00;197.70;;;152.55;;
13368;SDS011;6753;52.520;13.450;2022-10-26T12:48:21;197.10;;;151.52;;
13368;SDS011;6753;52.520;13.450;2022-10-26T12:48:38;194.15;;;149.60;;
13368;SDS011;6753;52.520;13.450;2022-10-26T12:48:50;201.30;;;154.25;;
13368;SDS011;6753;52.520;13.450;2022-10-26T12:49:02;201.55;;;154.30;;
13368;SDS011;6753;52.520;13.450;2022-10-26T12:49:57;218.73;;;165.40;;
13368;SDS011;6753;52.520;13.450;2022-10-26T12:50:21;229.73;;;173.65;;
13368;SDS011;6753;52.520;13.450;2022-10-26T12:50:33;257.80;;;194.57;;
13368;SDS011;6753;52.520;13.450;2022-10-26T12:50:44;266.15;;;203.43;;
13368;SDS011;6753;52.520;13.450;2022-10-26T12:50:55;277.93;;;213.43;;
13368;SDS011;6753;52.520;13.450;2022-10-26T12:51:44;276.90;;;213.45;;
13368;SDS011;6753;52.520;13.450;2022-10-26T12:51:55;282.88;;;216.65;;
13368;SDS011;6753;52.520;13.450;2022-10-26T12:52:41;268.70;;;198.68;;
13368;SDS011;6753;52.520;13.450;2022-10-26T12:52:56;279.40;;;208.25;;
13368;SDS011;6753;52.520;13.450;2022-10-26T12:53:10;280.35;;;209.38;;
13368;SDS011;6753;52.520;13.450;2022-10-26T12:53:24;292.08;;;218.75;;
13368;SDS011;6753;52.520;13.450;2022-10-26T12:53:35;298.05;;;223.23;;
13368;SDS011;6753;52.520;13.450;2022-10-26T12:53:48;430.90;;;370.57;;
13368;SDS011;6753;52.520;13.450;2022-10-26T12:54:05;331.15;;;261.90;;
13368;SDS011;6753;52.520;13.450;2022-10-26T12:54:29;311.33;;;240.00;;
13368;SDS011;6753;52.520;13.450;2022-10-26T12:54:48;286.05;;;217.93;;
13368;SDS011;6753;52.520;13.450;2022-10-26T12:56:14;249.88;;;183.52;;
13368;SDS011;6753;52.520;13.450;2022-10-26T12:56:29;244.38;;;176.68;;
13368;SDS011;6753;52.520;13.450;2022-10-26T12:56:47;241.55;;;172.00;;
13368;SDS011;6753;52.520;13.450;2022-10-26T12:57:05;241.52;;;173.15;;
13368;SDS011;6753;52.520;13.450;2022-10-26T12:57:29;244.32;;;177.80;;
13368;SDS011;6753;52.520;13.450;2022-10-26T12:57:46;243.80;;;182.05;;
13368;SDS011;6753;52.520;13.450;2022-10-26T12:58:12;242.75;;;181.65;;
13368;SDS011;6753;52.520;13.450;2022-10-26T12:58:44;236.90;;;180.02;;
13368;SDS011;6753;52.520;13.450;2022-10-26T12:59:29;261.05;;;206.48;;
13368;SDS011;6753;52.520;13.450;2022-10-26T12:59:48;720.65;;;635.13;;
13368;SDS011;6753;52.520;13.450;2022-10-26T13:00:04;558.20;;;474.38;;
13368;SDS011;6753;52.520;13.450;2022-10-26T13:00:22;445.67;;;371.77;;
13368;SDS011;6753;52.520;13.450;2022-10-26T13:00:35;366.85;;;303.38;;
13368;SDS011;6753;52.520;13.450;2022-10-26T13:00:52;351.98;;;291.27;;
13368;SDS011;6753;52.520;13.450;2022-10-26T13:02:25;360.42;;;298.08;;
13368;SDS011;6753;52.520;13.450;2022-10-26T13:03:03;371.70;;;300.63;;
13368;SDS011;6753;52.520;13.450;2022-10-26T13:03:28;390.05;;;311.08;;
13368;SDS011;6753;52.520;13.450;2022-10-26T13:03:45;402.10;;;320.15;;
13368;SDS011;6753;52.520;13.450;2022-10-26T13:04:07;410.15;;;325.08;;
13368;SDS011;6753;52.520;13.450;2022-10-26T13:04:47;395.27;;;313.75;;
13368;SDS011;6753;52.520;13.450;2022-10-26T13:05:27;396.92;;;311.23;;
13368;SDS011;6753;52.520;13.450;2022-10-26T13:06:44;381.10;;;299.55;;
13368;SDS011;6753;52.520;13.450;2022-10-26T13:07:18;388.52;;;304.45;;
13368;SDS011;6753;52.520;13.450;2022-10-26T13:07:34;398.88;;;310.75;;
13368;SDS011;6753;52.520;13.450;2022-10-26T13:07:47;424.10;;;330.90;;
13368;SDS011;6753;52.520;13.450;2022-10-26T13:08:01;433.55;;;338.67;;
13368;SDS011;6753;52.520;13.450;2022-10-26T13:08:15;423.60;;;331.90;;
13368;SDS011;6753;52.520;13.450;2022-10-26T13:08:26;414.88;;;327.25;;
13368;SDS011;6753;52.520;13.450;2022-10-26T13:08:38;405.95;;;319.40;;
13368;SDS011;6753;52.520;13.450;2022-10-26T13:08:52;399.30;;;314.33;;
13368;SDS011;6753;52.520;13.450;2022-10-26T13:09:06;408.40;;;323.27;;
13368;SDS011;6753;52.520;13.450;2022-10-26T13:09:22;429.90;;;340.13;;
13368;SDS011;6753;52.520;13.450;2022-10-26T13:09:38;448.85;;;358.08;;
13368;SDS011;6753;52.520;13.450;2022-10-26T13:09:58;459.98;;;366.92;;
13368;SDS011;6753;52.520;13.450;2022-10-26T13:10:16;453.95;;;360.52;;
13368;SDS011;6753;52.520;13.450;2022-10-26T13:10:30;437.40;;;342.50;;
13368;SDS011;6753;52.520;13.450;2022-10-26T13:10:43;424.70;;;329.23;;
13368;SDS011;6753;52.520;13.450;2022-10-26T13:11:12;423.48;;;327.83;;
13368;SDS011;6753;52.520;13.450;2022-10-26T13:11:27;447.30;;;371.00;;
13368;SDS011;6753;52.520;13.450;2022-10-26T13:11:42;441.75;;;353.13;;
13368;SDS011;6753;52.520;13.450;2022-10-26T13:11:56;432.40;;;343.27;;
13368;SDS011;6753;52.520;13.450;2022-10-26T13:12:10;422.08;;;333.52;;
13368;SDS011;6753;52.520;13.450;2022-10-26T13:12:21;407.40;;;316.50;;
13368;SDS011;6753;52.520;13.450;2022-10-26T13:12:36;407.85;;;315.85;;
13368;SDS011;6753;52.520;13.450;2022-10-26T13:12:57;415.02;;;324.85;;
13368;SDS011;6753;52.520;13.450;2022-10-26T13:13:17;430.38;;;338.50;;
13368;SDS011;6753;52.520;13.450;2022-10-26T13:13:32;450.58;;;358.88;;
13368;SDS011;6753;52.520;13.450;2022-10-26T13:13:50;451.63;;;360.52;;
13368;SDS011;6753;52.520;13.450;2022-10-26T13:14:04;452.83;;;362.98;;
13368;SDS011;6753;52.520;13.450;2022-10-26T13:14:19;451.23;;;362.83;;
13368;SDS011;6753;52.520;13.450;2022-10-26T13:14:35;456.88;;;370.15;;
13368;SDS011;6753;52.520;13.450;2022-10-26T13:14:54;461.88;;;377.25;;
13368;SDS011;6753;52.520;13.450;2022-10-26T13:15:17;464.20;;;379.30;;
13368;SDS011;6753;52.520;13.450;2022-10-26T13:15:33;465.67;;;386.55;;
13368;SDS011;6753;52.520;13.450;2022-10-26T13:15:51;471.15;;;396.10;;
13368;SDS011;6753;52.520;13.450;2022-10-26T13:16:03;475.55;;;402.23;;
13368;SDS011;6753;52.520;13.450;2022-10-26T13:16:14;475.02;;;401.15;;
13368;SDS011;6753;52.520;13.450;2022-10-26T13:16:27;443.58;;;357.55;;
13368;SDS011;6753;52.520;13.450;2022-10-26T13:16:39;431.88;;;347.48;;
13368;SDS011;6753;52.520;13.450;2022-10-26T13:16:54;429.38;;;346.80;;
13368;SDS011;6753;52.520;13.450;2022-10-26T13:17:16;425.88;;;343.55;;
13368;SDS011;6753;52.520;13.450;2022-10-26T13:17:33;397.58;;;318.80;;
13368;SDS011;6753;52.520;13.450;2022-10-26T13:17:51;403.98;;;325.05;;
13368;SDS011;6753;52.520;13.450;2022-10-26T13:18:08;415.23;;;336.40;;
13368;SDS011;6753;52.520;13.450;2022-10-26T13:18:23;424.65;;;344.40;;
13368;SDS011;6753;52.520;13.450;2022-10-26T13:18:39;430.92;;;349.38;;
13368;SDS011;6753;52.520;13.450;2022-10-26T13:18:52;426.90;;;344.17;;
13368;SDS011;6753;52.520;13.450;2022-10-26T13:19:04;421.05;;;336.40;;
13368;SDS011;6753;52.520;13.450;2022-10-26T13:19:29;426.35;;;340.83;;
13368;SDS011;6753;52.520;13.450;2022-10-26T13:19:46;429.52;;;342.58;;
13368;SDS011;6753;52.520;13.450;2022-10-26T13:19:58;421.90;;;335.65;;
13368;SDS011;6753;52.520;13.450;2022-10-26T13:20:13;413.00;;;329.08;;
13368;SDS011;6753;52.520;13.450;2022-10-26T13:20:27;402.63;;;319.25;;
13368;SDS011;6753;52.520;13.450;2022-10-26T13:20:50;398.10;;;316.05;;
13368;SDS011;6753;52.520;13.450;2022-10-26T13:21:04;384.52;;;306.02;;
13368;SDS011;6753;52.520;13.450;2022-10-26T13:21:19;423.90;;;350.25;;
13368;SDS011;6753;52.520;13.450;2022-10-26T13:21:34;496.48;;;434.20;;
13368;SDS011;6753;52.520;13.450;2022-10-26T13:21:56;381.13;;;313.38;;
13368;SDS011;6753;52.520;13.450;2022-10-26T13:22:12;364.35;;;294.42;;
13368;SDS011;6753;52.520;13.450;2022-10-26T13:22:24;340.45;;;266.35;;
13368;SDS011;6753;52.520;13.450;2022-10-26T13:22:43;330.75;;;259.15;;
13368;SDS011;6753;52.520;13.450;2022-10-26T13:22:55;287.15;;;219.77;;
13368;SDS011;6753;52.520;13.450;2022-10-26T13:23:13;301.02;;;234.70;;
13368;SDS011;6753;52.520;13.450;2022-10-26T13:23:29;316.15;;;250.43;;
13368;SDS011;6753;52.520;13.450;2022-10-26T13:23:43;339.42;;;268.58;;
13368;SDS011;6753;52.520;13.450;2022-10-26T13:23:56;354.08;;;280.55;;
13368;SDS011;6753;52.520;13.450;2022-10-26T13:24:10;350.00;;;275.13;;
13368;SDS011;6753;52.520;13.450;2022-10-26T13:24:24;345.88;;;269.75;;
13368;SDS011;6753;52.520;13.450;2022-10-26T13:24:37;333.77;;;259.45;;
13368;SDS011;6753;52.520;13.450;2022-10-26T13:24:59;321.20;;;249.55;;
13368;SDS011;6753;52.520;13.450;2022-10-26T13:25:16;284.77;;;217.65;;
13368;SDS011;6753;52.520;13.450;2022-10-26T13:25:31;277.58;;;209.75;;
13368;SDS011;6753;52.520;13.450;2022-10-26T13:25:42;285.92;;;216.90;;
13368;SDS011;6753;52.520;13.450;2022-10-26T13:26:12;301.45;;;228.18;;
13368;SDS011;6753;52.520;13.450;2022-10-26T13:26:27;305.35;;;230.63;;
13368;SDS011;6753;52.520;13.450;2022-10-26T13:27:42;289.00;;;224.00;;
13368;SDS011;6753;52.520;13.450;2022-10-26T13:27:58;298.50;;;228.77;;
13368;SDS011;6753;52.520;13.450;2022-10-26T13:28:48;315.00;;;236.75;;
13368;SDS011;6753;52.520;13.450;2022-10-26T13:29:02;311.95;;;237.98;;
13368;SDS011;6753;52.520;13.450;2022-10-26T13:29:13;296.08;;;226.43;;
13368;SDS011;6753;52.520;13.450;2022-10-26T13:29:28;291.63;;;224.23;;
13368;SDS011;6753;52.520;13.450;2022-10-26T13:30:57;275.73;;;201.88;;
13368;SDS011;6753;52.520;13.450;2022-10-26T13:31:09;276.67;;;199.83;;
13368;SDS011;6753;52.520;13.450;2022-10-26T13:32:08;247.60;;;183.00;;
13368;SDS011;6753;52.520;13.450;2022-10-26T13:32:22;238.18;;;174.70;;
13368;SDS011;6753;52.520;13.450;2022-10-26T13:32:34;226.63;;;166.90;;
13368;SDS011;6753;52.520;13.450;2022-10-26T13:32:48;218.82;;;160.27;;
13368;SDS011;6753;52.520;13.450;2022-10-26T13:33:02;218.23;;;159.20;;
13368;SDS011;6753;52.520;13.450;2022-10-26T13:33:22;216.95;;;155.38;;
13368;SDS011;6753;52.520;13.450;2022-10-26T13:33:38;210.85;;;152.45;;
13368;SDS011;6753;52.520;13.450;2022-10-26T13:33:52;204.63;;;149.10;;
13368;SDS011;6753;52.520;13.450;2022-10-26T13:34:09;199.75;;;146.93;;
13368;SDS011;6753;52.520;13.450;2022-10-26T13:34:25;197.85;;;146.75;;
13368;SDS011;6753;52.520;13.450;2022-10-26T13:34:39;201.25;;;147.23;;
13368;SDS011;6753;52.520;13.450;2022-10-26T13:34:53;202.60;;;147.50;;
13368;SDS011;6753;52.520;13.450;2022-10-26T13:35:05;198.93;;;144.50;;
13368;SDS011;6753;52.520;13.450;2022-10-26T13:35:22;197.43;;;142.60;;
13368;SDS011;6753;52.520;13.450;2022-10-26T13:35:35;189.68;;;139.68;;
13368;SDS011;6753;52.520;13.450;2022-10-26T13:35:52;181.65;;;134.02;;
13368;SDS011;6753;52.520;13.450;2022-10-26T13:36:10;177.25;;;131.82;;